Time;durP1;ratioP1;P1;durP2;ratioP2;P2;SDS_P1;SDS_P2;PMS_P1;PMS_P2;Temp;Humidity;BMP_temperature;BMP_pressure;BME280_temperature;BME280_humidity;BME280_pressure;Samples;Min_cycle;Max_cycle;Signal;HPM_P1;HPM_P2
2021/05/03 00:01:34;;;;;;;3.70;3.40;;;10.40;99.90;;;;;;4901920;29;20470;-73
2021/05/03 00:04:02;;;;;;;4.03;3.63;;;10.40;99.90;;;;;;4901762;29;21011;-72
2021/05/03 00:06:29;;;;;;;3.43;3.13;;;10.30;99.90;;;;;;4905133;29;20472;-72
2021/05/03 00:08:56;;;;;;;3.73;3.43;;;10.30;99.90;;;;;;4908796;29;20464;-73
2021/05/03 00:11:23;;;;;;;4.60;3.60;;;10.30;99.90;;;;;;4894975;29;20491;-73
2021/05/03 00:13:51;;;;;;;4.20;3.90;;;10.30;99.90;;;;;;4903159;29;20575;-73
2021/05/03 00:16:18;;;;;;;5.43;4.87;;;10.20;99.90;;;;;;4904105;29;20537;-74
2021/05/03 00:18:46;;;;;;;5.07;4.33;;;10.10;99.90;;;;;;4903333;29;20487;-76
2021/05/03 00:21:13;;;;;;;3.60;3.30;;;10.10;99.90;;;;;;4903015;29;20471;-74
2021/05/03 00:23:40;;;;;;;3.30;3.00;;;10.00;99.90;;;;;;4901443;29;20468;-73
2021/05/03 00:26:10;;;;;;;4.30;3.90;;;10.00;99.90;;;;;;4904763;29;20503;-74
2021/05/03 00:28:37;;;;;;;3.90;3.50;;;9.90;99.90;;;;;;4902370;29;20467;-73
2021/05/03 00:31:06;;;;;;;3.70;3.40;;;9.80;99.90;;;;;;4903577;29;20535;-72
2021/05/03 00:33:33;;;;;;;4.97;3.83;;;9.80;99.90;;;;;;4910389;29;20814;-74
2021/05/03 00:36:00;;;;;;;3.50;3.20;;;9.80;99.90;;;;;;4908930;29;20510;-76
2021/05/03 00:38:27;;;;;;;4.40;4.00;;;9.80;99.90;;;;;;4906847;29;20840;-72
2021/05/03 00:40:55;;;;;;;3.80;3.40;;;9.80;99.90;;;;;;4905958;29;20874;-76
2021/05/03 00:43:22;;;;;;;3.47;3.17;;;9.70;99.90;;;;;;4903550;29;20468;-73
2021/05/03 00:45:49;;;;;;;4.37;3.43;;;9.70;99.90;;;;;;4905445;29;20476;-73
2021/05/03 00:48:17;;;;;;;3.83;3.30;;;9.70;99.90;;;;;;4909237;29;20470;-73
2021/05/03 00:50:45;;;;;;;4.27;3.60;;;9.70;99.90;;;;;;4912518;29;20487;-72
2021/05/03 00:53:13;;;;;;;4.23;3.83;;;9.70;99.90;;;;;;4901854;29;20465;-75
2021/05/03 00:55:40;;;;;;;4.97;4.20;;;9.70;99.90;;;;;;4907489;29;20941;-73
2021/05/03 00:58:07;;;;;;;4.83;4.43;;;9.80;99.90;;;;;;4902444;29;21187;-72
2021/05/03 01:00:35;;;;;;;4.27;3.87;;;9.80;99.90;;;;;;4910037;29;20854;-75
2021/05/03 01:03:02;;;;;;;5.27;4.30;;;9.70;99.90;;;;;;4914103;29;20518;-73
2021/05/03 01:05:30;;;;;;;4.40;4.00;;;9.70;99.90;;;;;;4907475;29;20487;-73
2021/05/03 01:07:58;;;;;;;3.70;3.40;;;9.70;99.90;;;;;;4901189;29;20544;-72
2021/05/03 01:10:25;;;;;;;5.00;3.60;;;9.70;99.90;;;;;;4905645;29;20505;-75
2021/05/03 01:12:54;;;;;;;4.30;3.70;;;9.70;99.90;;;;;;4900376;29;20895;-74
2021/05/03 01:15:23;;;;;;;4.27;3.90;;;9.60;99.90;;;;;;4910473;29;20470;-74
2021/05/03 01:17:56;;;;;;;5.10;4.60;;;9.60;99.90;;;;;;4911395;29;21061;-73
2021/05/03 01:20:25;;;;;;;4.43;3.80;;;9.60;99.90;;;;;;4914523;29;20899;-75
2021/05/03 01:22:56;;;;;;;5.00;4.50;;;9.50;99.90;;;;;;4906989;29;20478;-71
2021/05/03 01:25:27;;;;;;;5.30;4.90;;;9.50;99.90;;;;;;4905642;29;20553;-74
2021/05/03 01:27:55;;;;;;;4.87;4.30;;;9.50;99.90;;;;;;4907171;29;20552;-74
2021/05/03 01:30:30;;;;;;;4.00;3.70;;;9.50;99.90;;;;;;4903591;29;20494;-71
2021/05/03 01:32:57;;;;;;;4.47;4.17;;;9.40;99.90;;;;;;4909021;29;20487;-72
2021/05/03 01:35:25;;;;;;;5.30;4.60;;;9.40;99.90;;;;;;4906440;29;20898;-73
2021/05/03 01:37:55;;;;;;;4.47;4.00;;;9.30;99.90;;;;;;4914422;29;20482;-74
2021/05/03 01:40:23;;;;;;;5.17;4.17;;;9.30;99.90;;;;;;4905113;29;21065;-73
2021/05/03 01:42:51;;;;;;;4.70;4.30;;;9.60;99.90;;;;;;4897245;29;20505;-71
2021/05/03 01:45:21;;;;;;;4.90;4.30;;;9.30;99.90;;;;;;4904842;29;20470;-73
2021/05/03 01:47:50;;;;;;;5.10;4.60;;;9.30;99.90;;;;;;4897486;29;20535;-73
2021/05/03 01:50:19;;;;;;;5.07;4.57;;;9.30;99.90;;;;;;4905900;29;20492;-74
2021/05/03 01:52:46;;;;;;;5.43;4.93;;;9.30;99.90;;;;;;4898984;29;20459;-76
2021/05/03 01:55:15;;;;;;;5.50;5.00;;;9.30;99.90;;;;;;4903391;29;20960;-72
2021/05/03 01:57:42;;;;;;;6.37;5.00;;;9.40;99.90;;;;;;4901729;29;20510;-75
2021/05/03 02:00:12;;;;;;;4.90;4.50;;;9.40;99.90;;;;;;4913211;29;20526;-76
2021/05/03 02:02:39;;;;;;;5.70;4.90;;;9.30;99.90;;;;;;4903930;29;20568;-75
2021/05/03 02:05:08;;;;;;;4.90;4.50;;;9.30;99.90;;;;;;4904556;29;20475;-74
2021/05/03 02:07:35;;;;;;;6.53;4.87;;;9.30;99.90;;;;;;4906183;29;20928;-72
2021/05/03 02:10:03;;;;;;;6.17;5.57;;;9.30;99.90;;;;;;4902461;29;20909;-73
2021/05/03 02:12:31;;;;;;;5.80;4.80;;;9.30;99.90;;;;;;4910875;29;20991;-75
2021/05/03 02:14:58;;;;;;;5.87;5.27;;;9.30;99.90;;;;;;4904112;29;20907;-75
2021/05/03 02:17:25;;;;;;;5.53;4.63;;;9.30;99.90;;;;;;4905540;29;20498;-75
2021/05/03 02:19:52;;;;;;;4.63;4.13;;;9.60;99.90;;;;;;4906036;29;20490;-76
2021/05/03 02:22:19;;;;;;;5.90;5.30;;;9.30;99.90;;;;;;4905260;29;20896;-76
2021/05/03 02:24:46;;;;;;;5.03;4.53;;;9.20;99.90;;;;;;4904494;29;20482;-73
2021/05/03 02:27:13;;;;;;;4.90;4.50;;;9.20;99.90;;;;;;4903241;29;20921;-74
2021/05/03 02:29:43;;;;;;;6.63;5.00;;;9.20;99.90;;;;;;4906406;29;20527;-74
2021/05/03 02:32:11;;;;;;;6.00;5.40;;;9.20;99.90;;;;;;4899268;29;20480;-74
2021/05/03 02:34:38;;;;;;;6.93;5.83;;;9.20;99.90;;;;;;4907659;29;20946;-75
2021/05/03 02:37:05;;;;;;;5.77;5.17;;;9.20;99.90;;;;;;4904793;29;20471;-72
2021/05/03 02:39:33;;;;;;;5.83;5.27;;;9.20;99.90;;;;;;4903461;29;20507;-76
2021/05/03 02:42:01;;;;;;;5.43;4.73;;;9.10;99.90;;;;;;4898358;29;20456;-74
2021/05/03 02:44:29;;;;;;;6.13;5.10;;;9.20;99.90;;;;;;4900573;29;20469;-74
2021/05/03 02:46:58;;;;;;;5.90;5.20;;;9.30;99.90;;;;;;4903022;29;20476;-73
2021/05/03 02:49:25;;;;;;;5.13;4.47;;;9.20;99.90;;;;;;4904508;29;20502;-74
2021/05/03 02:51:52;;;;;;;8.43;5.30;;;9.20;99.90;;;;;;4904201;29;20463;-73
2021/05/03 02:54:19;;;;;;;5.90;5.30;;;9.20;99.90;;;;;;4907880;29;20542;-73
2021/05/03 02:56:46;;;;;;;7.40;5.50;;;9.10;99.90;;;;;;4904918;29;20519;-72
2021/05/03 02:59:14;;;;;;;6.47;5.77;;;9.10;99.90;;;;;;4904074;29;20503;-76
2021/05/03 03:01:41;;;;;;;5.93;5.43;;;9.20;99.90;;;;;;4903728;29;20472;-73
2021/05/03 03:04:09;;;;;;;6.00;5.10;;;9.20;99.90;;;;;;4906076;29;20755;-74
2021/05/03 03:06:36;;;;;;;6.20;5.30;;;9.10;99.90;;;;;;4908151;29;21273;-75
2021/05/03 03:09:05;;;;;;;6.10;5.57;;;9.20;99.90;;;;;;4902469;29;20532;-76
2021/05/03 03:11:32;;;;;;;7.80;5.90;;;9.20;99.90;;;;;;4901950;29;20472;-73
2021/05/03 03:14:01;;;;;;;6.60;5.90;;;9.50;99.90;;;;;;4905708;29;20489;-73
2021/05/03 03:16:28;;;;;;;7.60;6.87;;;9.20;99.90;;;;;;4899915;29;20526;-74
2021/05/03 03:18:57;;;;;;;5.90;5.30;;;9.30;99.90;;;;;;4897423;29;20518;-74
2021/05/03 03:21:25;;;;;;;6.07;5.33;;;9.20;99.90;;;;;;4904113;29;20479;-73
2021/05/03 03:23:53;;;;;;;5.97;4.70;;;9.20;99.90;;;;;;4908832;29;20486;-75
2021/05/03 03:26:20;;;;;;;7.23;6.63;;;9.30;99.90;;;;;;4903684;29;20924;-74
2021/05/03 03:28:47;;;;;;;6.60;5.87;;;9.20;99.90;;;;;;4902288;29;20475;-74
2021/05/03 03:31:15;;;;;;;6.43;5.83;;;9.30;99.90;;;;;;4904377;29;20769;-74
2021/05/03 03:33:42;;;;;;;6.10;5.50;;;9.20;99.90;;;;;;4902550;29;20479;-75
2021/05/03 03:36:09;;;;;;;10.03;5.47;;;9.20;99.90;;;;;;4905239;29;20479;-75
2021/05/03 03:38:37;;;;;;;7.03;5.33;;;9.20;99.90;;;;;;4901037;29;20497;-74
2021/05/03 03:41:04;;;;;;;6.00;5.50;;;9.10;99.90;;;;;;4898000;29;21035;-71
2021/05/03 03:43:31;;;;;;;6.00;5.50;;;9.10;99.90;;;;;;4905479;29;20701;-74
2021/05/03 03:45:58;;;;;;;6.00;5.50;;;9.00;99.90;;;;;;4905019;29;20970;-73
2021/05/03 03:48:25;;;;;;;5.77;5.23;;;9.00;99.90;;;;;;4893017;29;20465;-76
2021/05/03 03:50:53;;;;;;;6.73;5.67;;;9.00;99.90;;;;;;4905216;29;20498;-76
2021/05/03 03:53:20;;;;;;;10.17;6.00;;;9.00;99.90;;;;;;4896764;29;20474;-75
2021/05/03 03:55:48;;;;;;;7.30;6.38;;;8.90;99.90;;;;;;4903669;29;20485;-72
2021/05/03 03:58:16;;;;;;;9.30;6.80;;;8.90;99.90;;;;;;4910251;29;20235;-75
2021/05/03 04:00:43;;;;;;;7.63;5.77;;;9.00;99.90;;;;;;4901987;29;20553;-74
2021/05/03 04:03:10;;;;;;;7.80;6.53;;;9.00;99.90;;;;;;4895802;29;21056;-74
2021/05/03 04:08:28;;;;;;;6.80;5.67;;;8.90;99.90;;;;;;4895429;29;20477;-74
2021/05/03 04:11:04;;;;;;;6.43;5.77;;;8.90;99.90;;;;;;4904551;29;20496;-75
2021/05/03 04:13:58;;;;;;;7.30;6.53;;;8.90;99.90;;;;;;4908011;29;20535;-75
2021/05/03 04:22:11;;;;;;;6.33;5.70;;;9.00;99.90;;;;;;4905370;29;20541;-73
2021/05/03 04:24:42;;;;;;;8.52;7.45;;;9.00;99.90;;;;;;4904947;29;20990;-73
2021/05/03 04:27:10;;;;;;;6.70;6.00;;;9.00;99.90;;;;;;4905669;29;20634;-71
2021/05/03 04:29:38;;;;;;;9.77;6.83;;;9.20;99.90;;;;;;4903516;29;20479;-76
2021/05/03 04:32:06;;;;;;;7.50;6.70;;;9.00;99.90;;;;;;4902635;29;20485;-72
2021/05/03 04:34:34;;;;;;;7.40;6.00;;;8.90;99.90;;;;;;4916167;29;20468;-74
2021/05/03 04:37:01;;;;;;;7.30;6.00;;;8.90;99.90;;;;;;4899300;29;20463;-72
2021/05/03 04:39:28;;;;;;;7.50;6.50;;;8.90;99.90;;;;;;4903221;29;20642;-74
2021/05/03 04:41:55;;;;;;;9.80;6.50;;;8.90;99.90;;;;;;4918975;29;20549;-74
2021/05/03 04:44:23;;;;;;;7.60;6.77;;;8.90;99.90;;;;;;4900958;29;20506;-74
2021/05/03 04:46:50;;;;;;;9.10;6.17;;;8.70;99.90;;;;;;4908774;29;21350;-74
2021/05/03 04:49:17;;;;;;;7.20;6.37;;;8.80;99.90;;;;;;4896221;29;21117;-75
2021/05/03 04:51:44;;;;;;;8.68;7.78;;;8.80;99.90;;;;;;4901633;29;20483;-73
2021/05/03 04:54:12;;;;;;;7.65;6.95;;;8.60;99.90;;;;;;4903085;29;20493;-76
2021/05/03 04:56:39;;;;;;;7.17;6.47;;;8.60;99.90;;;;;;4901226;29;20234;-74
2021/05/03 04:59:06;;;;;;;7.57;6.77;;;8.80;99.90;;;;;;4905492;29;21073;-75
2021/05/03 05:01:34;;;;;;;6.87;6.27;;;8.90;99.90;;;;;;4900619;29;20472;-74
2021/05/03 05:04:01;;;;;;;6.77;6.07;;;8.60;99.90;;;;;;4905722;29;20506;-75
2021/05/03 05:06:28;;;;;;;6.97;5.77;;;8.70;99.90;;;;;;4898200;29;20549;-74
2021/05/03 05:08:55;;;;;;;7.63;6.77;;;8.70;99.90;;;;;;4897355;29;20531;-74
2021/05/03 05:11:22;;;;;;;6.63;6.00;;;8.70;99.90;;;;;;4890515;29;20493;-74
2021/05/03 05:13:49;;;;;;;10.27;7.87;;;8.70;99.90;;;;;;4897593;29;20474;-71
2021/05/03 05:16:16;;;;;;;10.07;6.57;;;8.40;99.90;;;;;;4897725;29;20488;-74
2021/05/03 05:18:44;;;;;;;8.18;7.07;;;8.80;99.90;;;;;;4900884;29;20553;-73
2021/05/03 05:21:11;;;;;;;7.57;6.50;;;8.90;99.90;;;;;;4898528;29;20743;-72
2021/05/03 05:23:43;;;;;;;7.67;6.67;;;8.90;99.90;;;;;;4894285;29;20499;-73
2021/05/03 05:26:10;;;;;;;7.20;5.97;;;8.90;99.90;;;;;;4893928;29;20490;-73
2021/05/03 05:28:37;;;;;;;7.63;6.90;;;9.00;99.90;;;;;;4902473;29;20475;-72
2021/05/03 05:31:05;;;;;;;7.13;6.43;;;9.20;99.90;;;;;;4916363;29;20784;-73
2021/05/03 05:33:32;;;;;;;7.40;6.70;;;9.00;99.90;;;;;;4895348;29;20866;-73
2021/05/03 05:36:00;;;;;;;8.50;6.50;;;9.10;99.90;;;;;;4896786;29;20504;-74
2021/05/03 05:38:28;;;;;;;8.80;6.57;;;9.10;99.90;;;;;;4895723;29;20490;-73
2021/05/03 05:40:55;;;;;;;6.83;6.17;;;9.10;99.90;;;;;;4896693;29;20902;-71
2021/05/03 05:43:22;;;;;;;7.67;5.70;;;9.20;99.90;;;;;;4898733;29;20474;-71
2021/05/03 05:45:49;;;;;;;7.47;6.37;;;9.10;99.90;;;;;;4894158;29;20559;-73
2021/05/03 05:48:16;;;;;;;6.30;4.80;;;9.10;99.90;;;;;;4895420;29;20865;-76
2021/05/03 05:50:43;;;;;;;6.73;5.37;;;9.10;99.90;;;;;;4896792;29;20506;-71
2021/05/03 05:53:11;;;;;;;6.80;6.20;;;9.10;99.90;;;;;;4892782;29;20484;-73
2021/05/03 05:55:40;;;;;;;8.03;5.43;;;9.20;99.90;;;;;;4898036;29;20910;-73
2021/05/03 05:58:07;;;;;;;6.63;6.03;;;9.10;99.90;;;;;;4896211;29;20489;-71
2021/05/03 06:00:34;;;;;;;6.97;6.03;;;9.20;99.90;;;;;;4895066;29;20490;-72
2021/05/03 06:03:02;;;;;;;6.83;6.13;;;9.30;99.90;;;;;;4900589;29;20466;-73
2021/05/03 06:05:29;;;;;;;5.70;5.10;;;9.30;99.90;;;;;;4895203;29;20512;-70
2021/05/03 06:07:56;;;;;;;5.47;4.97;;;9.40;99.90;;;;;;4902835;29;20471;-72
2021/05/03 06:10:24;;;;;;;4.90;4.50;;;9.50;99.90;;;;;;4892660;29;20493;-70
2021/05/03 06:12:52;;;;;;;5.40;4.90;;;9.50;99.90;;;;;;4892456;29;20458;-72
2021/05/03 06:15:19;;;;;;;6.83;5.93;;;9.50;99.90;;;;;;4898105;29;20479;-73
2021/05/03 06:17:46;;;;;;;5.83;5.33;;;9.60;99.90;;;;;;4898598;29;20809;-72
2021/05/03 06:20:13;;;;;;;6.83;5.97;;;9.70;99.90;;;;;;4893818;29;20567;-73
2021/05/03 06:22:41;;;;;;;8.57;5.17;;;9.90;99.90;;;;;;4893676;29;20482;-73
2021/05/03 06:25:09;;;;;;;5.87;5.37;;;10.00;99.90;;;;;;4894540;29;21052;-73
2021/05/03 06:27:37;;;;;;;6.20;4.80;;;10.10;99.90;;;;;;4896358;29;20471;-71
2021/05/03 06:30:06;;;;;;;6.60;5.80;;;10.30;99.90;;;;;;4892526;29;20476;-73
2021/05/03 06:32:33;;;;;;;9.60;6.00;;;10.40;99.90;;;;;;4895524;29;21010;-75
2021/05/03 06:35:01;;;;;;;8.30;6.07;;;10.70;99.90;;;;;;4895739;29;20485;-73
2021/05/03 06:37:28;;;;;;;5.93;5.03;;;10.90;99.90;;;;;;4894600;29;20475;-73
2021/05/03 06:39:55;;;;;;;7.50;6.03;;;11.10;99.90;;;;;;4890129;29;20505;-73
2021/05/03 06:42:22;;;;;;;6.87;5.20;;;11.50;99.90;;;;;;4898834;29;20479;-77
2021/05/03 06:44:50;;;;;;;6.03;5.47;;;11.70;99.90;;;;;;4895292;29;21566;-74
2021/05/03 06:47:18;;;;;;;5.87;4.90;;;12.10;99.90;;;;;;4895478;29;20473;-76
2021/05/03 06:49:45;;;;;;;6.53;5.53;;;12.20;99.90;;;;;;4896174;29;20892;-77
2021/05/03 06:52:13;;;;;;;5.53;4.37;;;12.40;99.90;;;;;;4898813;29;21129;-76
2021/05/03 06:54:41;;;;;;;5.17;4.67;;;12.60;99.90;;;;;;4895798;29;20465;-73
2021/05/03 06:57:08;;;;;;;5.13;4.63;;;12.70;99.90;;;;;;4894837;29;20889;-75
2021/05/03 06:59:35;;;;;;;4.27;3.87;;;12.90;99.90;;;;;;4896191;29;20484;-78
2021/05/03 07:02:05;;;;;;;6.17;4.37;;;13.10;98.70;;;;;;4895437;29;20474;-74
2021/05/03 07:04:32;;;;;;;4.47;4.00;;;13.30;98.20;;;;;;4893059;29;20885;-75
2021/05/03 07:07:00;;;;;;;4.77;4.37;;;13.30;97.90;;;;;;4896702;29;20881;-73
2021/05/03 07:09:27;;;;;;;5.73;5.07;;;13.40;98.10;;;;;;4892998;29;20522;-76
2021/05/03 07:11:55;;;;;;;4.97;4.43;;;13.60;98.20;;;;;;4897276;29;20480;-76
2021/05/03 07:14:22;;;;;;;5.00;4.60;;;13.60;97.90;;;;;;4891258;29;20451;-75
2021/05/03 07:16:50;;;;;;;4.60;4.30;;;13.70;96.60;;;;;;4896735;29;20717;-75
2021/05/03 07:19:18;;;;;;;5.20;4.70;;;13.90;98.30;;;;;;4898176;29;20866;-77
2021/05/03 07:21:45;;;;;;;5.03;4.63;;;14.00;98.70;;;;;;4912499;29;20961;-74
2021/05/03 07:24:14;;;;;;;4.80;4.40;;;14.10;98.70;;;;;;4911464;29;20498;-76
2021/05/03 07:26:41;;;;;;;8.23;4.70;;;14.10;98.70;;;;;;4899517;29;20883;-75
2021/05/03 07:29:09;;;;;;;6.43;5.00;;;14.00;96.70;;;;;;4896308;29;20475;-76
2021/05/03 07:31:36;;;;;;;7.10;5.10;;;14.00;95.60;;;;;;4899683;29;20462;-76
2021/05/03 07:34:04;;;;;;;3.90;3.50;;;13.90;94.00;;;;;;4896206;29;20483;-73
2021/05/03 07:36:32;;;;;;;5.57;3.97;;;13.90;93.30;;;;;;4896753;29;20454;-78
2021/05/03 07:38:59;;;;;;;4.40;4.00;;;14.00;94.20;;;;;;4899356;29;20524;-77
2021/05/03 07:41:26;;;;;;;6.67;5.03;;;14.10;90.30;;;;;;4902050;29;20477;-76
2021/05/03 07:43:53;;;;;;;8.75;4.68;;;14.10;89.30;;;;;;4897544;29;20458;-73
2021/05/03 07:46:25;;;;;;;5.80;4.70;;;14.10;79.90;;;;;;4897202;29;20225;-75
2021/05/03 07:48:53;;;;;;;5.50;4.93;;;14.10;84.20;;;;;;4897793;29;21002;-76
2021/05/03 07:51:20;;;;;;;6.17;4.40;;;14.10;88.30;;;;;;4897578;29;20210;-76
2021/05/03 07:53:48;;;;;;;9.53;4.60;;;14.10;87.40;;;;;;4898830;29;20467;-76
2021/05/03 07:56:16;;;;;;;11.13;5.20;;;14.00;90.90;;;;;;4913109;29;20454;-76
2021/05/03 07:58:43;;;;;;;6.67;4.47;;;14.00;76.70;;;;;;4903763;29;20507;-77
2021/05/03 08:01:11;;;;;;;5.03;4.00;;;14.00;76.80;;;;;;4900043;29;20458;-74
2021/05/03 08:03:41;;;;;;;3.83;3.53;;;14.00;74.70;;;;;;4905184;29;20280;-74
2021/05/03 08:06:12;;;;;;;7.37;4.50;;;14.00;70.10;;;;;;4898371;29;20482;-74
2021/05/03 08:08:40;;;;;;;3.63;3.33;;;14.00;61.10;;;;;;4901634;29;20461;-74
2021/05/03 08:11:08;;;;;;;3.40;3.10;;;13.90;62.80;;;;;;4896145;29;20496;-76
2021/05/03 08:13:35;;;;;;;4.90;4.50;;;13.90;66.60;;;;;;4898207;29;20467;-76
2021/05/03 08:16:07;;;;;;;4.80;4.40;;;13.90;64.70;;;;;;4901671;29;21011;-75
2021/05/03 08:18:34;;;;;;;3.40;3.10;;;13.80;60.90;;;;;;4894176;29;20727;-78
2021/05/03 08:21:01;;;;;;;4.57;4.10;;;13.70;53.50;;;;;;4891412;29;20922;-76
2021/05/03 08:23:28;;;;;;;4.17;3.47;;;13.70;52.20;;;;;;4893362;29;20478;-76
2021/05/03 08:25:56;;;;;;;4.03;3.10;;;13.70;51.00;;;;;;4893488;29;20527;-76
2021/05/03 08:28:24;;;;;;;10.63;4.23;;;13.70;48.10;;;;;;4897026;29;20461;-77
2021/05/03 08:30:52;;;;;;;3.07;2.77;;;13.70;47.70;;;;;;4896531;29;20904;-76
2021/05/03 08:33:20;;;;;;;3.20;2.90;;;13.60;41.10;;;;;;4892139;29;20469;-74
2021/05/03 08:35:48;;;;;;;5.30;3.90;;;13.60;43.60;;;;;;4898275;29;20941;-74
2021/05/03 08:38:18;;;;;;;4.30;2.97;;;13.50;41.50;;;;;;4895217;29;20497;-77
2021/05/03 08:40:46;;;;;;;3.90;3.10;;;13.50;39.50;;;;;;4896928;29;20504;-77
2021/05/03 08:43:13;;;;;;;2.87;2.67;;;13.50;37.70;;;;;;4894169;29;20468;-76
2021/05/03 08:45:43;;;;;;;3.50;3.20;;;13.40;37.00;;;;;;4898306;29;20630;-76
2021/05/03 08:48:17;;;;;;;3.20;3.00;;;13.30;37.40;;;;;;4896331;29;21033;-76
2021/05/03 08:50:56;;;;;;;3.50;3.20;;;13.30;36.60;;;;;;4894617;29;20249;-75
2021/05/03 08:53:29;;;;;;;2.60;2.40;;;13.30;37.00;;;;;;4897826;29;20535;-79
2021/05/03 08:55:56;;;;;;;3.87;3.57;;;13.30;37.80;;;;;;4897533;29;20558;-75
2021/05/03 08:58:24;;;;;;;3.63;3.33;;;13.30;37.50;;;;;;4900352;29;21018;-77
2021/05/03 09:00:52;;;;;;;2.50;2.10;;;13.30;35.80;;;;;;4899938;29;20485;-76
2021/05/03 09:03:20;;;;;;;2.80;2.60;;;13.30;37.00;;;;;;4913434;29;20473;-76
2021/05/03 09:05:47;;;;;;;3.10;2.90;;;13.30;33.30;;;;;;4896166;29;20517;-76
2021/05/03 09:08:23;;;;;;;2.93;2.73;;;13.20;31.10;;;;;;4897923;29;20463;-77
2021/05/03 09:10:51;;;;;;;3.87;2.97;;;13.30;30.00;;;;;;4914251;29;20489;-77
2021/05/03 09:13:30;;;;;;;6.80;4.43;;;13.20;32.00;;;;;;4894262;29;21349;-75
2021/05/03 09:16:19;;;;;;;4.00;3.70;;;13.30;29.70;;;;;;4895842;29;20965;-76
2021/05/03 09:18:47;;;;;;;3.23;3.00;;;13.30;31.10;;;;;;4897340;29;20505;-76
2021/05/03 09:21:19;;;;;;;4.07;2.80;;;13.30;27.90;;;;;;4901349;29;20458;-78
2021/05/03 09:24:04;;;;;;;3.17;2.87;;;13.30;27.30;;;;;;4898703;29;20516;-77
2021/05/03 09:26:38;;;;;;;2.50;2.30;;;13.30;26.10;;;;;;4901808;29;20956;-77
2021/05/03 09:29:27;;;;;;;2.83;2.63;;;13.40;28.10;;;;;;4898528;29;20544;-75
2021/05/03 09:32:06;;;;;;;3.07;2.80;;;13.50;30.20;;;;;;4897602;29;20671;-78
2021/05/03 09:34:36;;;;;;;2.83;2.63;;;13.60;32.80;;;;;;4899614;29;20469;-77
2021/05/03 09:37:27;;;;;;;2.70;2.50;;;13.60;33.20;;;;;;4904888;29;20544;-76
2021/05/03 09:40:07;;;;;;;3.20;2.10;;;13.60;36.00;;;;;;4900553;29;20507;-76
2021/05/03 09:42:53;;;;;;;3.03;2.83;;;13.70;32.50;;;;;;4888531;29;21010;-73
2021/05/03 09:45:23;;;;;;;2.80;2.60;;;13.60;29.90;;;;;;4894679;29;20898;-77
2021/05/03 09:47:52;;;;;;;2.87;2.63;;;13.60;32.80;;;;;;4904414;29;20460;-75
2021/05/03 09:50:22;;;;;;;2.67;2.13;;;13.60;29.90;;;;;;4905212;29;20758;-77
2021/05/03 09:53:03;;;;;;;3.17;2.97;;;13.60;29.60;;;;;;4904371;29;21058;-76
2021/05/03 09:55:40;;;;;;;2.50;2.30;;;13.60;27.10;;;;;;4899268;29;20207;-76
2021/05/03 09:58:12;;;;;;;2.60;2.40;;;13.60;28.30;;;;;;4910455;29;20468;-77
2021/05/03 10:00:41;;;;;;;2.67;2.47;;;13.60;27.10;;;;;;4901873;29;20494;-78
2021/05/03 10:03:30;;;;;;;2.77;2.50;;;13.60;27.10;;;;;;4903270;29;21301;-77
2021/05/03 10:05:58;;;;;;;2.20;2.00;;;13.60;25.30;;;;;;4898273;29;20493;-78
2021/05/03 10:08:25;;;;;;;2.00;1.80;;;13.50;24.50;;;;;;4900192;29;20967;-78
2021/05/03 10:10:55;;;;;;;1.97;1.87;;;13.50;25.50;;;;;;4899192;29;20496;-79
2021/05/03 10:13:22;;;;;;;2.40;2.20;;;13.60;22.10;;;;;;4895905;29;21011;-78
2021/05/03 10:15:54;;;;;;;3.47;3.17;;;13.60;22.10;;;;;;4899910;29;22323;-74
2021/05/03 10:18:22;;;;;;;2.50;2.30;;;13.70;21.60;;;;;;4894879;29;20976;-76
2021/05/03 10:20:51;;;;;;;3.47;1.97;;;13.80;25.30;;;;;;4912720;29;20495;-72
2021/05/03 10:23:21;;;;;;;2.20;2.00;;;13.90;24.50;;;;;;4898915;29;20475;-73
2021/05/03 10:25:49;;;;;;;3.67;1.95;;;14.00;24.00;;;;;;4899766;29;21024;-76
2021/05/03 10:28:16;;;;;;;2.27;2.07;;;13.90;20.80;;;;;;4895713;29;20210;-77
2021/05/03 10:30:47;;;;;;;2.92;2.63;;;13.90;24.80;;;;;;4898988;29;21036;-75
2021/05/03 10:33:15;;;;;;;2.77;2.57;;;13.90;20.10;;;;;;4903723;29;20235;-77
2021/05/03 10:35:45;;;;;;;3.07;2.30;;;13.90;19.80;;;;;;4899668;29;20474;-78
2021/05/03 10:38:36;;;;;;;2.73;2.53;;;14.10;23.50;;;;;;4904098;29;20493;-77
2021/05/03 10:41:21;;;;;;;2.50;2.30;;;14.10;21.20;;;;;;4905518;29;20859;-75
2021/05/03 10:43:50;;;;;;;2.10;1.60;;;14.10;26.40;;;;;;4905186;29;20474;-74
2021/05/03 10:49:33;;;;;;;2.83;2.27;;;14.30;25.60;;;;;;4901274;29;20481;-77
2021/05/03 10:52:01;;;;;;;2.13;2.00;;;14.30;25.30;;;;;;4904750;29;20920;-78
2021/05/03 10:54:51;;;;;;;2.03;1.93;;;14.20;22.90;;;;;;4896835;29;20879;-77
2021/05/03 10:57:42;;;;;;;2.07;1.97;;;14.20;22.20;;;;;;4904068;29;20497;-76
2021/05/03 11:00:29;;;;;;;2.60;2.30;;;14.30;24.40;;;;;;4892261;29;21009;-76
2021/05/03 11:02:56;;;;;;;4.20;2.43;;;14.20;23.20;;;;;;4905833;29;20659;-77
2021/05/03 11:05:26;;;;;;;2.17;1.97;;;14.30;23.70;;;;;;4898990;29;20476;-77
2021/05/03 11:08:23;;;;;;;2.50;2.30;;;14.40;23.60;;;;;;4894921;29;20745;-77
2021/05/03 11:11:01;;;;;;;2.23;2.07;;;14.40;24.40;;;;;;4862519;29;20741;-76
2021/05/03 11:13:48;;;;;;;2.07;1.80;;;14.40;25.10;;;;;;4890179;29;20471;-73
2021/05/03 11:16:54;;;;;;;1.70;1.60;;;14.50;26.00;;;;;;4898881;29;20485;-79
2021/05/03 11:19:39;;;;;;;2.00;1.90;;;14.60;24.90;;;;;;4896761;29;20511;-76
2021/05/03 11:22:08;;;;;;;1.83;1.73;;;14.60;25.10;;;;;;4898366;29;20470;-77
2021/05/03 11:24:45;;;;;;;7.03;1.90;;;14.70;24.60;;;;;;4895991;29;20837;-77
2021/05/03 11:27:17;;;;;;;1.60;1.50;;;14.70;22.70;;;;;;4897678;29;20456;-75
2021/05/03 11:29:47;;;;;;;1.57;1.40;;;14.70;22.30;;;;;;4894148;29;20553;-74
2021/05/03 11:32:15;;;;;;;2.20;1.70;;;14.80;21.70;;;;;;4894587;29;20451;-74
2021/05/03 11:34:55;;;;;;;1.50;1.40;;;14.80;19.60;;;;;;4897749;29;20474;-76
2021/05/03 11:37:32;;;;;;;3.10;1.40;;;14.80;20.60;;;;;;4899353;29;20859;-77
2021/05/03 11:40:06;;;;;;;1.67;1.57;;;14.80;22.00;;;;;;4898719;29;20489;-78
2021/05/03 11:45:24;;;;;;;1.67;1.57;;;14.90;20.60;;;;;;4891431;29;20474;-75
2021/05/03 11:47:55;;;;;;;2.20;2.00;;;14.90;20.50;;;;;;4892759;29;20536;-74
2021/05/03 11:50:23;;;;;;;1.60;1.50;;;15.00;19.40;;;;;;4899881;29;20486;-78
2021/05/03 11:52:51;;;;;;;1.80;1.70;;;14.90;18.60;;;;;;4894999;29;20458;-76
2021/05/03 11:55:20;;;;;;;1.73;1.50;;;14.80;18.40;;;;;;4908791;29;20204;-76
2021/05/03 11:57:49;;;;;;;1.47;1.37;;;14.90;17.80;;;;;;4897662;29;20976;-74
2021/05/03 12:00:18;;;;;;;1.60;1.50;;;14.80;20.40;;;;;;4891542;29;20553;-76
2021/05/03 12:02:46;;;;;;;1.70;1.60;;;14.90;21.60;;;;;;4896013;29;20479;-75
2021/05/03 12:05:15;;;;;;;1.73;1.63;;;15.00;20.10;;;;;;4895603;29;20606;-78
2021/05/03 12:07:43;;;;;;;1.70;1.60;;;14.90;16.80;;;;;;4895499;29;21051;-78
2021/05/03 12:10:12;;;;;;;1.90;1.80;;;14.80;15.10;;;;;;4897040;29;20471;-74
2021/05/03 12:12:42;;;;;;;1.63;1.53;;;14.90;15.50;;;;;;4894025;29;20470;-74
2021/05/03 12:15:16;;;;;;;1.67;1.57;;;14.80;13.90;;;;;;4892881;29;20901;-74
2021/05/03 12:17:44;;;;;;;1.40;1.30;;;14.70;13.20;;;;;;4892931;29;20476;-72
2021/05/03 12:20:14;;;;;;;1.80;1.60;;;14.70;11.70;;;;;;4889450;29;21000;-75
2021/05/03 12:22:52;;;;;;;1.40;1.30;;;14.60;11.10;;;;;;4891877;29;20525;-74
2021/05/03 12:25:20;;;;;;;1.40;1.30;;;14.60;12.10;;;;;;4897278;29;20469;-73
2021/05/03 12:27:47;;;;;;;2.03;1.40;;;14.70;12.80;;;;;;4896260;29;21403;-74
2021/05/03 12:30:16;;;;;;;1.52;1.42;;;14.80;14.70;;;;;;4897300;29;20836;-78
2021/05/03 12:32:43;;;;;;;1.50;1.40;;;14.70;11.10;;;;;;4899443;29;20474;-74
2021/05/03 12:35:13;;;;;;;1.50;1.40;;;14.60;11.30;;;;;;4901596;29;20651;-78
2021/05/03 12:37:41;;;;;;;1.67;1.10;;;14.60;11.20;;;;;;4914359;29;20471;-78
2021/05/03 12:40:13;;;;;;;1.40;1.30;;;14.70;13.40;;;;;;4897237;29;20505;-74
2021/05/03 12:42:45;;;;;;;1.50;1.40;;;14.80;12.40;;;;;;4902057;29;20991;-76
2021/05/03 12:45:26;;;;;;;1.57;1.30;;;14.90;13.70;;;;;;4900623;29;20463;-76
2021/05/03 12:50:49;;;;;;;3.37;1.40;;;14.90;21.70;;;;;;4900485;29;20474;-77
2021/05/03 12:53:21;;;;;;;1.43;1.33;;;15.00;10.00;;;;;;4897676;29;20478;-76
2021/05/03 12:58:56;;;;;;;1.23;1.13;;;15.10;16.10;;;;;;4888457;29;20880;-76
2021/05/03 13:01:36;;;;;;;1.37;1.20;;;15.30;19.70;;;;;;4895558;29;20940;-74
2021/05/03 13:04:14;;;;;;;2.07;1.30;;;15.30;18.30;;;;;;4900138;29;20521;-73
2021/05/03 13:09:53;;;;;;;1.10;1.10;;;15.40;24.70;;;;;;4896806;29;20478;-74
2021/05/03 13:29:39;;;;;;;2.20;1.30;;;15.00;8.80;;;;;;4894019;29;20459;-72
2021/05/03 13:32:07;;;;;;;1.60;1.33;;;15.00;6.90;;;;;;4898701;29;20217;-77
2021/05/03 13:34:36;;;;;;;1.47;1.23;;;15.00;6.90;;;;;;4900590;29;20465;-75
2021/05/03 13:37:03;;;;;;;1.60;1.50;;;15.00;7.60;;;;;;4895996;29;20474;-75
2021/05/03 13:39:30;;;;;;;1.63;1.53;;;15.00;8.60;;;;;;4895949;29;20502;-74
2021/05/03 13:41:57;;;;;;;1.70;1.43;;;15.00;14.90;;;;;;4896792;29;20470;-75
2021/05/03 13:44:25;;;;;;;4.10;1.83;;;15.20;10.70;;;;;;4901135;29;20998;-75